Time;durP1;ratioP1;P1;durP2;ratioP2;P2;SDS_P1;SDS_P2;PMS_P1;PMS_P2;Temp;Humidity;BMP_temperature;BMP_pressure;BME280_temperature;BME280_humidity;BME280_pressure;Samples;Min_cycle;Max_cycle;Signal;HPM_P1;HPM_P2
2022/05/01 00:02:08;;;;;;;7.25;4.75;;;11.30;92.20;;;;;;5049696;28;20227;-81
2022/05/01 00:04:34;;;;;;;8.05;4.53;;;11.30;92.30;;;;;;5046259;28;20104;-81
2022/05/01 00:07:00;;;;;;;8.25;4.43;;;11.30;92.40;;;;;;5048016;28;20112;-82
2022/05/01 00:09:26;;;;;;;6.85;3.85;;;11.20;92.40;;;;;;5038845;28;20039;-81
2022/05/01 00:11:53;;;;;;;7.40;4.85;;;11.20;92.40;;;;;;5050502;28;20021;-82
2022/05/01 00:14:18;;;;;;;9.82;4.90;;;11.10;92.50;;;;;;5035525;28;20036;-81
2022/05/01 00:16:44;;;;;;;6.57;4.53;;;11.10;92.60;;;;;;5033009;28;20037;-82
2022/05/01 00:19:09;;;;;;;7.20;4.75;;;11.10;92.70;;;;;;5043120;28;20421;-82
2022/05/01 00:21:36;;;;;;;9.02;4.38;;;11.00;92.90;;;;;;5041227;28;20443;-82
2022/05/01 00:24:02;;;;;;;8.98;5.00;;;11.00;93.00;;;;;;5046951;28;20021;-81
2022/05/01 00:26:28;;;;;;;5.93;4.82;;;10.90;93.00;;;;;;5050510;28;20086;-81
2022/05/01 00:28:53;;;;;;;10.23;4.70;;;10.80;93.30;;;;;;5060816;28;20385;-81
2022/05/01 00:31:19;;;;;;;6.25;4.47;;;10.80;93.20;;;;;;5048205;28;20056;-82
2022/05/01 00:36:29;;;;;;;7.40;4.38;;;10.80;93.50;;;;;;5040135;28;20438;-81
2022/05/01 00:39:05;;;;;;;9.35;4.40;;;10.80;93.60;;;;;;5050735;28;20113;-82
2022/05/01 00:41:39;;;;;;;9.35;4.40;;;10.70;93.70;;;;;;5054895;28;20021;-81
2022/05/01 00:44:09;;;;;;;7.03;4.32;;;10.60;93.80;;;;;;5039660;28;20057;-81
2022/05/01 00:46:55;;;;;;;11.65;4.50;;;10.60;93.90;;;;;;5048011;28;20021;-81
2022/05/01 00:49:23;;;;;;;7.05;4.45;;;10.60;94.10;;;;;;5040774;28;20418;-81
2022/05/01 00:51:52;;;;;;;7.32;4.70;;;10.50;94.10;;;;;;5046722;28;20382;-81
2022/05/01 00:54:22;;;;;;;7.22;4.45;;;10.50;94.10;;;;;;5049156;28;20577;-82
2022/05/01 00:56:50;;;;;;;8.93;5.10;;;10.50;94.20;;;;;;5051594;28;20060;-82
2022/05/01 00:59:16;;;;;;;10.02;4.28;;;10.50;94.30;;;;;;5057495;28;20415;-81
2022/05/01 01:01:43;;;;;;;10.13;4.93;;;10.50;94.40;;;;;;5048665;28;20051;-81
2022/05/01 01:04:09;;;;;;;7.28;4.47;;;10.50;94.60;;;;;;5062803;28;20025;-81
2022/05/01 01:06:35;;;;;;;16.67;4.72;;;10.40;95.00;;;;;;5031693;28;20022;-81
2022/05/01 01:09:01;;;;;;;6.18;4.18;;;10.40;95.00;;;;;;5044865;28;20033;-81
2022/05/01 01:11:26;;;;;;;9.68;4.35;;;10.30;95.10;;;;;;5059919;28;20033;-81
2022/05/01 01:13:52;;;;;;;12.57;4.35;;;10.30;95.40;;;;;;5045541;28;20048;-81
2022/05/01 01:16:18;;;;;;;9.45;4.82;;;10.20;95.50;;;;;;5046102;28;20750;-82
2022/05/01 01:18:43;;;;;;;9.40;4.80;;;10.20;95.70;;;;;;5043451;28;20071;-80
2022/05/01 01:21:10;;;;;;;10.27;5.25;;;10.10;95.90;;;;;;5053466;28;20029;-81
2022/05/01 01:23:37;;;;;;;6.65;4.72;;;10.00;96.00;;;;;;5051174;28;20028;-82
2022/05/01 01:26:04;;;;;;;10.35;4.47;;;10.10;96.00;;;;;;5050965;28;20112;-81
2022/05/01 01:28:33;;;;;;;8.38;4.20;;;10.10;96.00;;;;;;5044464;28;20542;-81
2022/05/01 01:33:51;;;;;;;6.53;4.22;;;10.00;96.10;;;;;;5041931;28;20040;-82
2022/05/01 01:36:20;;;;;;;8.63;4.47;;;10.00;96.10;;;;;;5032327;28;20041;-83
2022/05/01 01:38:45;;;;;;;8.57;4.30;;;10.00;96.20;;;;;;5049478;28;20090;-81
2022/05/01 01:41:13;;;;;;;6.30;4.38;;;10.00;96.20;;;;;;5047694;28;20041;-81
2022/05/01 01:43:41;;;;;;;6.15;3.95;;;10.10;96.10;;;;;;5046619;28;20437;-81
2022/05/01 01:46:06;;;;;;;7.13;4.30;;;10.10;96.00;;;;;;5042261;28;20017;-81
2022/05/01 01:48:32;;;;;;;7.45;3.65;;;10.00;96.00;;;;;;5045189;28;20032;-82
2022/05/01 01:51:02;;;;;;;8.73;4.43;;;10.00;96.00;;;;;;5049041;28;20051;-81
2022/05/01 01:53:29;;;;;;;7.50;3.50;;;10.00;96.10;;;;;;5052375;28;20024;-81
2022/05/01 01:55:57;;;;;;;7.30;5.07;;;10.00;96.10;;;;;;5040702;28;20382;-81
2022/05/01 01:58:23;;;;;;;7.10;4.53;;;10.00;96.20;;;;;;5054489;28;20376;-82
2022/05/01 02:00:48;;;;;;;6.20;4.38;;;10.00;96.10;;;;;;5052167;28;20037;-81
2022/05/01 02:03:14;;;;;;;6.97;4.43;;;10.00;96.20;;;;;;5039406;28;20377;-81
2022/05/01 02:05:39;;;;;;;5.35;3.92;;;10.00;96.20;;;;;;5043910;28;20044;-82
2022/05/01 02:08:05;;;;;;;5.38;3.90;;;10.00;96.20;;;;;;5047275;28;20036;-81
2022/05/01 02:10:31;;;;;;;8.15;4.07;;;9.90;96.30;;;;;;5055992;28;20032;-81
2022/05/01 02:12:59;;;;;;;6.85;3.88;;;10.00;96.30;;;;;;5033955;28;20029;-82
2022/05/01 02:15:25;;;;;;;7.68;3.80;;;10.00;96.20;;;;;;5041088;28;20025;-82
2022/05/01 02:17:51;;;;;;;6.45;4.18;;;10.00;96.20;;;;;;5029993;28;20045;-81
2022/05/01 02:20:16;;;;;;;9.23;4.07;;;10.00;96.20;;;;;;5048210;28;20484;-80
2022/05/01 02:22:42;;;;;;;6.03;3.55;;;10.00;96.10;;;;;;5041299;28;20394;-81
2022/05/01 02:25:12;;;;;;;6.70;3.67;;;10.00;96.20;;;;;;5050176;28;20166;-82
2022/05/01 02:27:37;;;;;;;8.38;4.72;;;10.00;96.20;;;;;;5035275;28;20043;-81
2022/05/01 02:30:05;;;;;;;7.30;4.13;;;10.00;96.20;;;;;;5047238;28;20052;-81
2022/05/01 02:32:30;;;;;;;5.65;3.95;;;10.00;96.20;;;;;;5035147;28;20079;-81
2022/05/01 02:34:56;;;;;;;7.68;4.15;;;9.90;96.10;;;;;;5031402;28;20021;-81
2022/05/01 02:37:21;;;;;;;5.55;3.95;;;9.90;96.10;;;;;;5044748;28;20481;-81
2022/05/01 02:39:47;;;;;;;5.18;3.80;;;9.90;96.30;;;;;;5046874;28;20025;-82
2022/05/01 02:42:13;;;;;;;6.00;3.97;;;9.90;96.00;;;;;;5047638;28;20496;-81
2022/05/01 02:44:38;;;;;;;7.28;4.53;;;9.90;96.20;;;;;;5042144;28;20025;-81
2022/05/01 02:47:05;;;;;;;9.40;4.05;;;9.90;96.10;;;;;;5040950;28;20029;-81
2022/05/01 02:49:30;;;;;;;9.00;4.20;;;9.80;96.10;;;;;;5054912;28;20021;-80
2022/05/01 02:51:56;;;;;;;7.93;4.32;;;9.80;96.10;;;;;;5044328;28;20041;-81
2022/05/01 02:54:22;;;;;;;4.88;3.97;;;9.80;96.20;;;;;;5047372;28;20028;-82
2022/05/01 02:56:49;;;;;;;5.75;4.38;;;9.70;96.10;;;;;;5047985;28;20035;-81
2022/05/01 02:59:18;;;;;;;4.93;3.78;;;9.70;96.20;;;;;;5048852;28;20028;-81
2022/05/01 03:01:44;;;;;;;7.28;4.03;;;9.70;96.20;;;;;;5056940;28;20048;-82
2022/05/01 03:04:10;;;;;;;7.80;4.15;;;9.70;96.20;;;;;;5046005;28;20543;-81
2022/05/01 03:06:36;;;;;;;5.30;3.00;;;9.70;96.20;;;;;;5044657;28;20498;-80
2022/05/01 03:09:01;;;;;;;7.38;4.25;;;9.60;96.20;;;;;;5048611;28;20120;-80
2022/05/01 03:11:27;;;;;;;6.68;3.08;;;9.60;96.10;;;;;;5033640;28;20025;-81
2022/05/01 03:13:53;;;;;;;5.03;3.20;;;9.60;96.10;;;;;;5044278;28;20104;-81
2022/05/01 03:16:19;;;;;;;3.90;2.90;;;9.50;96.10;;;;;;5050881;28;20025;-79
2022/05/01 03:24:15;;;;;;;5.00;3.33;;;9.50;96.30;;;;;;5046964;28;20071;-81
2022/05/01 03:26:41;;;;;;;3.78;2.78;;;9.40;96.30;;;;;;5034013;28;20036;-80
2022/05/01 03:29:07;;;;;;;9.00;3.45;;;9.40;96.30;;;;;;5036265;28;20029;-80
2022/05/01 03:31:35;;;;;;;4.50;3.17;;;9.40;96.40;;;;;;5049616;28;20088;-81
2022/05/01 03:34:03;;;;;;;3.17;2.60;;;9.40;96.40;;;;;;5052717;28;20104;-80
2022/05/01 03:36:28;;;;;;;6.35;3.53;;;9.40;96.30;;;;;;5049076;28;20025;-80
2022/05/01 03:38:54;;;;;;;8.00;3.40;;;9.40;96.30;;;;;;5036151;28;20056;-80
2022/05/01 03:41:19;;;;;;;4.80;3.30;;;9.40;96.30;;;;;;5056427;28;20033;-80
2022/05/01 03:43:44;;;;;;;7.38;3.03;;;9.40;96.30;;;;;;5042954;28;20382;-80
2022/05/01 03:46:10;;;;;;;4.90;3.22;;;9.40;96.30;;;;;;5034293;28;20040;-80
2022/05/01 03:48:36;;;;;;;4.50;2.70;;;9.40;96.20;;;;;;5051729;28;20481;-79
2022/05/01 03:51:02;;;;;;;5.53;2.80;;;9.40;96.20;;;;;;5043723;28;20029;-79
2022/05/01 03:53:29;;;;;;;5.82;3.65;;;9.40;96.20;;;;;;5060634;28;20045;-80
2022/05/01 03:55:55;;;;;;;5.35;3.30;;;9.40;96.20;;;;;;5049112;28;20715;-79
2022/05/01 03:58:21;;;;;;;10.13;3.45;;;9.40;96.20;;;;;;5050437;28;20059;-80
2022/05/01 04:00:47;;;;;;;6.32;3.33;;;9.40;96.30;;;;;;5047935;28;20067;-80
2022/05/01 04:03:15;;;;;;;5.97;3.00;;;9.40;96.30;;;;;;5046235;28;20109;-81
2022/05/01 04:05:40;;;;;;;5.60;3.10;;;9.30;96.30;;;;;;5046008;28;20029;-81
2022/05/01 04:08:08;;;;;;;5.20;2.60;;;9.30;96.30;;;;;;5050351;28;20037;-80
2022/05/01 04:10:38;;;;;;;10.82;3.42;;;9.40;96.30;;;;;;5044780;28;20030;-80
2022/05/01 04:13:04;;;;;;;6.22;2.78;;;9.40;96.30;;;;;;5051988;28;20024;-79
2022/05/01 04:15:29;;;;;;;5.70;3.08;;;9.40;96.20;;;;;;5050671;28;20383;-79
2022/05/01 04:17:55;;;;;;;4.50;3.05;;;9.50;96.20;;;;;;5056076;28;20064;-80
2022/05/01 04:20:20;;;;;;;6.15;2.70;;;9.50;96.10;;;;;;5064289;28;20025;-81
2022/05/01 04:22:48;;;;;;;2.58;2.28;;;9.60;96.00;;;;;;5051083;28;20087;-80
2022/05/01 04:25:18;;;;;;;3.58;2.42;;;9.60;96.00;;;;;;5050397;28;20541;-80
2022/05/01 04:27:46;;;;;;;4.85;2.38;;;9.70;95.90;;;;;;5056533;28;20180;-80
2022/05/01 04:30:13;;;;;;;4.63;2.83;;;9.80;95.70;;;;;;5067596;28;20012;-80
2022/05/01 04:32:54;;;;;;;3.80;2.83;;;9.90;95.60;;;;;;5059771;28;20032;-81
2022/05/01 04:35:31;;;;;;;4.90;2.58;;;10.00;95.50;;;;;;5050744;28;20082;-80
2022/05/01 04:38:01;;;;;;;5.07;2.85;;;10.10;95.60;;;;;;5035080;28;20091;-80
2022/05/01 04:41:00;;;;;;;5.03;2.13;;;10.20;95.20;;;;;;5036186;28;20042;-80
2022/05/01 04:43:27;;;;;;;3.97;1.90;;;10.30;95.10;;;;;;5061697;28;20495;-81
2022/05/01 04:45:55;;;;;;;6.35;2.60;;;10.40;95.00;;;;;;5053520;28;20030;-81
2022/05/01 04:48:22;;;;;;;7.38;2.83;;;10.50;94.70;;;;;;5053942;28;20049;-80
2022/05/01 04:50:48;;;;;;;4.70;2.53;;;10.60;94.40;;;;;;5060605;28;20032;-81
2022/05/01 04:53:16;;;;;;;7.25;2.47;;;10.70;94.20;;;;;;5055283;28;20116;-80
2022/05/01 04:55:43;;;;;;;3.63;2.22;;;10.70;94.20;;;;;;5051390;28;20539;-80
2022/05/01 04:58:10;;;;;;;5.90;2.85;;;10.80;94.10;;;;;;5056118;28;20500;-79
2022/05/01 05:00:36;;;;;;;3.53;2.15;;;10.90;93.80;;;;;;5056728;28;20035;-81
2022/05/01 05:03:03;;;;;;;5.60;2.63;;;10.90;93.90;;;;;;5047248;28;20165;-81
2022/05/01 05:05:31;;;;;;;7.60;3.03;;;11.00;93.70;;;;;;5032023;28;20116;-80
2022/05/01 05:09:53;;;;;;;4.97;2.47;;;11.10;93.60;;;;;;5047805;28;20032;-81
2022/05/01 05:10:42;;;;;;;8.02;2.67;;;11.20;93.50;;;;;;5050040;28;20487;-80
2022/05/01 05:13:08;;;;;;;3.20;2.30;;;11.30;93.60;;;;;;5039197;28;20128;-80
2022/05/01 05:15:34;;;;;;;3.38;2.10;;;11.40;93.40;;;;;;5039140;28;20082;-80
2022/05/01 05:17:59;;;;;;;4.50;2.78;;;11.50;93.40;;;;;;5049665;28;20045;-79
2022/05/01 05:20:27;;;;;;;3.83;2.80;;;11.70;93.50;;;;;;5062099;28;20060;-81
2022/05/01 05:22:53;;;;;;;5.45;2.92;;;11.90;93.30;;;;;;5032622;28;20030;-80
2022/05/01 05:25:20;;;;;;;6.30;2.25;;;11.90;92.40;;;;;;5031169;28;20370;-80
2022/05/01 05:27:47;;;;;;;7.13;2.95;;;12.00;92.20;;;;;;5049534;28;20894;-81
2022/05/01 05:30:13;;;;;;;4.70;2.50;;;12.00;92.50;;;;;;5050042;28;20036;-80
2022/05/01 05:32:39;;;;;;;6.93;3.35;;;12.00;91.90;;;;;;5055449;28;20041;-79
2022/05/01 05:35:05;;;;;;;5.60;2.70;;;12.00;91.80;;;;;;5047318;28;20521;-82
2022/05/01 05:37:31;;;;;;;5.05;2.70;;;12.20;91.90;;;;;;5071816;28;20066;-82
2022/05/01 05:39:57;;;;;;;6.57;3.22;;;12.30;91.70;;;;;;5046291;28;20112;-82
2022/05/01 05:42:22;;;;;;;8.93;3.22;;;12.20;91.50;;;;;;5055478;28;20218;-82
2022/05/01 05:44:48;;;;;;;5.50;2.78;;;12.10;91.50;;;;;;5063079;28;20033;-79
2022/05/01 05:47:13;;;;;;;6.55;2.30;;;12.20;91.60;;;;;;5044267;28;20064;-81
2022/05/01 05:49:39;;;;;;;5.80;3.35;;;12.40;91.80;;;;;;5044319;28;20033;-82
2022/05/01 05:52:05;;;;;;;3.65;2.95;;;12.60;91.40;;;;;;5053788;28;20454;-81
2022/05/01 05:54:30;;;;;;;5.72;3.45;;;12.60;91.10;;;;;;5043270;28;20104;-81
2022/05/01 05:56:56;;;;;;;6.25;2.72;;;12.80;90.80;;;;;;5030536;28;20077;-82
2022/05/01 05:59:21;;;;;;;6.88;3.92;;;12.80;90.40;;;;;;5038522;28;20028;-81
2022/05/01 06:01:47;;;;;;;5.80;3.38;;;12.80;90.40;;;;;;5042325;28;20374;-81
2022/05/01 06:04:12;;;;;;;10.98;3.03;;;13.00;90.30;;;;;;5055033;28;20746;-81
2022/05/01 06:06:38;;;;;;;5.93;2.80;;;13.10;90.00;;;;;;5035079;28;20056;-81
2022/05/01 06:09:04;;;;;;;5.55;3.17;;;13.20;89.50;;;;;;5036964;28;20040;-81
2022/05/01 06:11:29;;;;;;;2.95;2.50;;;13.30;89.40;;;;;;5051938;28;20028;-81
2022/05/01 06:13:55;;;;;;;4.00;2.60;;;13.50;88.40;;;;;;5053416;28;20025;-81
2022/05/01 06:16:21;;;;;;;7.07;3.28;;;13.60;88.60;;;;;;5049461;28;20020;-81
2022/05/01 06:18:46;;;;;;;4.45;2.72;;;13.60;87.00;;;;;;5050617;28;20033;-81
2022/05/01 06:21:12;;;;;;;7.72;3.75;;;13.70;87.50;;;;;;5053211;28;20036;-81
2022/05/01 06:23:38;;;;;;;6.43;3.00;;;13.80;86.90;;;;;;5064079;28;20028;-81
2022/05/01 06:26:07;;;;;;;5.55;3.10;;;13.90;87.50;;;;;;5069924;28;20025;-81
2022/05/01 06:28:33;;;;;;;7.10;3.10;;;13.80;86.10;;;;;;5058110;28;20020;-81
2022/05/01 06:31:00;;;;;;;4.88;3.05;;;13.80;86.20;;;;;;5055923;28;20032;-82
2022/05/01 06:33:28;;;;;;;7.15;2.92;;;13.90;87.50;;;;;;5062031;28;20154;-82
2022/05/01 06:35:54;;;;;;;4.15;3.08;;;13.90;86.70;;;;;;5070111;28;20016;-81
2022/05/01 06:38:20;;;;;;;7.68;3.08;;;13.90;86.80;;;;;;5052840;28;20032;-81
2022/05/01 06:40:46;;;;;;;7.40;3.80;;;13.90;87.00;;;;;;5057822;28;20032;-81
2022/05/01 06:43:13;;;;;;;6.95;3.50;;;13.90;86.50;;;;;;5062034;28;20031;-81
2022/05/01 06:45:41;;;;;;;3.75;2.38;;;14.00;86.80;;;;;;5069957;28;20086;-81
2022/05/01 06:48:10;;;;;;;13.43;2.97;;;13.90;86.80;;;;;;5070517;28;20082;-81
2022/05/01 06:50:36;;;;;;;5.20;2.85;;;13.90;87.80;;;;;;5057821;28;20103;-82
2022/05/01 06:53:01;;;;;;;3.58;2.70;;;13.90;87.20;;;;;;5059813;28;20146;-81
2022/05/01 06:55:27;;;;;;;4.25;3.40;;;13.90;86.00;;;;;;5052893;28;20115;-82
2022/05/01 06:57:53;;;;;;;5.85;3.35;;;13.90;86.80;;;;;;5054168;28;20029;-81
2022/05/01 07:00:18;;;;;;;6.03;2.78;;;13.80;86.60;;;;;;5062503;28;20045;-82
2022/05/01 07:02:49;;;;;;;4.82;3.45;;;13.70;87.40;;;;;;5061356;28;20032;-81
2022/05/01 07:05:16;;;;;;;4.13;2.58;;;13.70;86.70;;;;;;5068633;28;20024;-81
2022/05/01 07:07:41;;;;;;;6.22;3.28;;;13.70;87.30;;;;;;5055728;28;20029;-82
2022/05/01 07:10:08;;;;;;;7.50;3.22;;;13.80;85.90;;;;;;5047401;28;20033;-81
2022/05/01 07:12:34;;;;;;;4.13;2.92;;;13.80;86.30;;;;;;5041544;28;20031;-82
2022/05/01 07:15:00;;;;;;;6.78;3.15;;;13.90;87.00;;;;;;5048894;28;20028;-82
2022/05/01 07:17:26;;;;;;;5.57;3.30;;;14.00;86.30;;;;;;5027973;28;20032;-81
2022/05/01 07:19:52;;;;;;;4.55;3.47;;;14.10;86.60;;;;;;5034776;28;20100;-81
2022/05/01 07:22:17;;;;;;;5.10;3.25;;;14.20;84.80;;;;;;5056632;28;20061;-82
2022/05/01 07:24:43;;;;;;;3.35;2.70;;;14.30;84.70;;;;;;5053686;28;20029;-81
2022/05/01 07:27:09;;;;;;;7.63;3.42;;;14.40;85.90;;;;;;5050004;28;20068;-81
2022/05/01 07:29:34;;;;;;;3.97;2.97;;;14.50;85.10;;;;;;5061275;28;20027;-81
2022/05/01 07:32:00;;;;;;;5.53;3.00;;;14.60;85.50;;;;;;5060328;28;20025;-81
2022/05/01 07:34:25;;;;;;;7.45;3.05;;;14.70;83.80;;;;;;5058507;28;20094;-81
2022/05/01 07:36:51;;;;;;;4.72;3.00;;;14.80;84.30;;;;;;5068124;28;20055;-82
2022/05/01 07:39:16;;;;;;;5.10;2.70;;;14.90;83.40;;;;;;5073729;28;20094;-81
2022/05/01 07:41:42;;;;;;;6.93;3.22;;;15.10;83.20;;;;;;5071853;28;20016;-81
2022/05/01 07:44:11;;;;;;;5.50;2.65;;;15.20;82.50;;;;;;5055352;28;20032;-82
2022/05/01 07:46:40;;;;;;;12.05;3.30;;;15.30;82.60;;;;;;5058784;28;20112;-81
2022/05/01 07:49:07;;;;;;;4.72;2.97;;;15.50;83.70;;;;;;5053226;28;20021;-81
2022/05/01 07:51:32;;;;;;;6.68;3.40;;;15.60;80.30;;;;;;5056321;28;20505;-82
2022/05/01 07:53:58;;;;;;;5.20;2.47;;;15.70;81.20;;;;;;5055204;28;20112;-80
2022/05/01 07:56:28;;;;;;;6.18;3.00;;;15.90;78.90;;;;;;5064147;28;20090;-80
2022/05/01 07:58:54;;;;;;;3.45;2.65;;;16.10;79.80;;;;;;5061022;28;20037;-80
2022/05/01 08:01:19;;;;;;;6.55;2.90;;;16.30;77.40;;;;;;5052941;28;20025;-80
2022/05/01 08:06:29;;;;;;;4.80;3.45;;;16.20;77.70;;;;;;5040636;28;20381;-80
2022/05/01 08:08:54;;;;;;;8.43;3.42;;;16.20;77.40;;;;;;5072808;28;20028;-80
2022/05/01 08:11:20;;;;;;;7.88;3.65;;;16.20;75.50;;;;;;5071617;28;20380;-80
2022/05/01 08:13:46;;;;;;;4.35;2.65;;;16.00;77.40;;;;;;5057674;28;20108;-80
2022/05/01 08:16:11;;;;;;;8.13;3.28;;;16.10;76.60;;;;;;5058577;28;20045;-81
2022/05/01 08:21:21;;;;;;;10.60;3.50;;;16.10;74.80;;;;;;5058259;28;20079;-80
2022/05/01 08:23:46;;;;;;;4.78;3.80;;;16.00;77.70;;;;;;5054816;28;20037;-79
2022/05/01 08:26:13;;;;;;;8.88;3.50;;;16.20;76.60;;;;;;5052119;28;20040;-80
2022/05/01 08:28:40;;;;;;;4.82;3.00;;;16.40;75.70;;;;;;5052524;28;20025;-80
2022/05/01 08:31:07;;;;;;;4.63;3.20;;;16.50;76.60;;;;;;5050862;28;20347;-80
2022/05/01 08:33:34;;;;;;;6.38;3.65;;;16.50;76.30;;;;;;5042418;28;20024;-80
2022/05/01 08:36:02;;;;;;;5.45;3.53;;;16.60;75.80;;;;;;5051734;28;20111;-81
2022/05/01 08:38:28;;;;;;;6.45;3.25;;;16.70;74.60;;;;;;5063003;28;20452;-80
2022/05/01 08:40:54;;;;;;;4.18;3.05;;;16.90;76.90;;;;;;5072120;28;20036;-81
2022/05/01 08:43:21;;;;;;;6.10;4.03;;;17.00;74.50;;;;;;5072280;28;20059;-80
2022/05/01 08:45:53;;;;;;;6.38;3.72;;;17.00;73.80;;;;;;5056596;28;20021;-81
2022/05/01 08:48:42;;;;;;;4.23;3.20;;;17.10;75.60;;;;;;5061203;28;20037;-80
2022/05/01 08:51:08;;;;;;;4.05;3.22;;;17.10;75.40;;;;;;5051768;28;20473;-81
2022/05/01 08:53:35;;;;;;;10.75;3.45;;;17.20;78.40;;;;;;5052055;28;20040;-80
2022/05/01 08:56:01;;;;;;;7.15;3.35;;;17.30;76.50;;;;;;5052089;28;20610;-80
2022/05/01 08:58:30;;;;;;;6.40;3.75;;;17.40;76.20;;;;;;5062991;28;20024;-79
2022/05/01 09:00:58;;;;;;;5.80;4.00;;;17.60;74.50;;;;;;5071592;28;20016;-80
2022/05/01 09:03:24;;;;;;;5.38;3.38;;;17.80;76.20;;;;;;5071869;28;20020;-80
2022/05/01 09:05:50;;;;;;;5.18;3.47;;;17.90;72.60;;;;;;5057829;28;20034;-81
2022/05/01 09:08:16;;;;;;;5.57;3.78;;;17.90;73.40;;;;;;5063432;28;20024;-81
2022/05/01 09:10:43;;;;;;;4.53;3.70;;;18.10;74.50;;;;;;5071907;28;20449;-81
2022/05/01 09:13:09;;;;;;;6.55;4.50;;;18.10;73.30;;;;;;5059844;28;20033;-80
2022/05/01 09:15:40;;;;;;;7.80;4.18;;;18.10;73.10;;;;;;5054220;28;20095;-81
2022/05/01 09:18:10;;;;;;;5.10;3.90;;;18.30;74.30;;;;;;5049814;28;20031;-81
2022/05/01 09:20:39;;;;;;;7.07;4.35;;;18.30;71.50;;;;;;5053816;28;20017;-80
2022/05/01 09:23:06;;;;;;;5.85;4.90;;;18.20;70.30;;;;;;5055815;28;20071;-81
2022/05/01 09:25:33;;;;;;;8.20;5.30;;;18.10;70.30;;;;;;5062167;28;20020;-80
2022/05/01 09:28:00;;;;;;;8.57;4.95;;;18.20;72.20;;;;;;5042756;28;20044;-81
2022/05/01 09:30:33;;;;;;;8.65;5.45;;;18.30;69.00;;;;;;5051354;28;20100;-81
2022/05/01 09:33:01;;;;;;;7.80;4.85;;;18.30;71.20;;;;;;5051174;28;20139;-81
2022/05/01 09:35:29;;;;;;;7.25;4.45;;;18.20;70.40;;;;;;5056574;28;20373;-81
2022/05/01 09:38:28;;;;;;;8.35;4.35;;;18.20;72.50;;;;;;5057839;28;20027;-81
2022/05/01 09:40:55;;;;;;;6.35;3.97;;;18.30;70.60;;;;;;5046711;28;20445;-80
2022/05/01 09:43:38;;;;;;;6.45;4.78;;;18.30;71.40;;;;;;5045506;28;20103;-81
2022/05/01 09:46:18;;;;;;;6.75;4.35;;;18.40;69.40;;;;;;5047121;28;20041;-81
2022/05/01 09:49:00;;;;;;;6.68;4.25;;;18.50;70.70;;;;;;5039254;28;20094;-78
2022/05/01 09:51:28;;;;;;;11.73;5.00;;;18.50;70.40;;;;;;5041262;28;20103;-80
2022/05/01 09:53:54;;;;;;;5.55;4.40;;;18.60;70.20;;;;;;5037782;28;20064;-81
2022/05/01 09:56:20;;;;;;;11.02;4.60;;;18.50;68.90;;;;;;5035136;28;20056;-81
2022/05/01 09:58:56;;;;;;;7.97;4.57;;;18.50;69.40;;;;;;5034990;28;20739;-81
2022/05/01 10:01:21;;;;;;;9.20;4.40;;;18.40;70.20;;;;;;5041902;28;20028;-81
2022/05/01 10:03:46;;;;;;;7.43;3.50;;;18.40;70.40;;;;;;5039182;28;20044;-81
2022/05/01 10:06:14;;;;;;;10.48;5.75;;;18.40;70.00;;;;;;5044621;28;20053;-82
2022/05/01 10:08:44;;;;;;;7.25;4.88;;;18.40;69.30;;;;;;5047749;28;20038;-81
2022/05/01 10:11:14;;;;;;;9.38;5.68;;;18.40;69.20;;;;;;5031360;28;20026;-81
2022/05/01 10:13:40;;;;;;;5.68;4.35;;;18.30;70.00;;;;;;5037891;28;20032;-81
2022/05/01 10:16:08;;;;;;;10.05;4.55;;;18.50;70.00;;;;;;5043511;28;20021;-81
2022/05/01 10:18:34;;;;;;;8.88;4.05;;;18.80;71.00;;;;;;5049234;28;20052;-82
2022/05/01 10:21:00;;;;;;;7.35;3.90;;;19.20;69.30;;;;;;5043138;28;20025;-81
2022/05/01 10:23:26;;;;;;;7.95;4.35;;;19.50;67.10;;;;;;5054802;28;20029;-82
2022/05/01 10:25:56;;;;;;;7.75;5.28;;;19.60;66.40;;;;;;5037486;28;20038;-82
2022/05/01 10:28:42;;;;;;;7.00;4.35;;;19.60;66.60;;;;;;5041562;28;20450;-81
2022/05/01 10:35:13;;;;;;;6.95;5.38;;;19.50;67.20;;;;;;5041511;28;20492;-82
2022/05/01 10:38:05;;;;;;;8.60;5.07;;;19.70;67.40;;;;;;5049430;28;20033;-80
2022/05/01 10:40:40;;;;;;;7.00;4.18;;;19.60;68.50;;;;;;5050164;28;20037;-81
2022/05/01 10:43:26;;;;;;;6.07;4.20;;;19.80;69.30;;;;;;5043392;28;20028;-80
2022/05/01 10:45:53;;;;;;;8.45;4.75;;;20.10;67.80;;;;;;5048634;28;20408;-80
2022/05/01 10:48:34;;;;;;;7.50;3.88;;;20.20;69.10;;;;;;5029967;28;20131;-81
2022/05/01 10:51:27;;;;;;;9.55;4.95;;;20.40;67.30;;;;;;5041312;28;20025;-80
2022/05/01 10:54:15;;;;;;;5.90;3.75;;;20.60;65.50;;;;;;5039912;28;20044;-81
2022/05/01 10:56:43;;;;;;;7.13;3.75;;;20.50;66.40;;;;;;5036891;28;20029;-80
2022/05/01 10:59:39;;;;;;;7.13;4.30;;;20.50;64.50;;;;;;5043574;28;20025;-80
2022/05/01 11:02:22;;;;;;;6.53;4.57;;;20.50;67.00;;;;;;5036181;28;20068;-80
2022/05/01 11:04:49;;;;;;;7.38;4.80;;;20.40;65.90;;;;;;5046982;28;20605;-80
2022/05/01 11:07:16;;;;;;;6.28;3.83;;;20.50;65.60;;;;;;5043537;28;20060;-80
2022/05/01 11:09:45;;;;;;;5.25;3.78;;;20.60;66.90;;;;;;5059251;28;20561;-80
2022/05/01 11:12:13;;;;;;;5.07;3.78;;;20.80;65.40;;;;;;5044384;28;20017;-80
2022/05/01 11:14:52;;;;;;;7.35;3.95;;;21.00;64.70;;;;;;5042986;28;20026;-79
2022/05/01 11:17:36;;;;;;;7.18;4.25;;;21.10;64.20;;;;;;5038704;28;20849;-79
2022/05/01 11:20:08;;;;;;;8.93;4.53;;;21.20;63.70;;;;;;5049128;28;20045;-79
2022/05/01 11:22:33;;;;;;;7.78;4.03;;;21.40;63.80;;;;;;5036413;28;20072;-81
2022/05/01 11:24:59;;;;;;;7.43;4.25;;;21.50;63.80;;;;;;5039866;28;20430;-80
2022/05/01 11:27:25;;;;;;;8.98;4.38;;;21.50;65.00;;;;;;5038482;28;20024;-79
2022/05/01 11:30:09;;;;;;;7.07;4.75;;;21.50;63.20;;;;;;5036736;28;20116;-80
2022/05/01 11:33:06;;;;;;;5.35;3.88;;;21.40;62.20;;;;;;5047595;28;20482;-78
2022/05/01 11:35:56;;;;;;;6.90;4.60;;;21.40;67.90;;;;;;5050082;28;20052;-79
2022/05/01 11:38:50;;;;;;;6.03;4.18;;;21.50;64.30;;;;;;5051494;28;20025;-78
2022/05/01 11:41:35;;;;;;;5.07;4.15;;;21.50;62.40;;;;;;5056312;28;20036;-79
2022/05/01 11:44:20;;;;;;;8.00;4.28;;;21.60;61.50;;;;;;5051721;28;20037;-78
2022/05/01 11:46:47;;;;;;;6.35;3.85;;;21.80;60.30;;;;;;5047639;28;20029;-78
2022/05/01 11:49:13;;;;;;;15.63;4.85;;;21.90;62.60;;;;;;5046838;28;20036;-81
2022/05/01 11:51:39;;;;;;;10.40;4.03;;;21.70;62.70;;;;;;5033701;28;22204;-78
2022/05/01 11:54:07;;;;;;;13.38;4.10;;;21.80;61.70;;;;;;5052261;28;20093;-78
2022/05/01 12:04:45;;;;;;;9.40;4.30;;;22.00;59.80;;;;;;5042730;28;20091;-78
2022/05/01 12:07:16;;;;;;;11.57;3.85;;;21.90;59.40;;;;;;5035033;28;20033;-78
2022/05/01 12:09:44;;;;;;;20.55;4.68;;;22.00;60.10;;;;;;5046667;28;20425;-78
2022/05/01 12:12:12;;;;;;;12.55;4.90;;;22.20;61.50;;;;;;5032300;28;20033;-78
2022/05/01 12:14:39;;;;;;;6.13;3.60;;;22.10;59.10;;;;;;5046960;28;20524;-78
2022/05/01 12:17:14;;;;;;;8.18;3.90;;;22.10;59.00;;;;;;5040930;28;20047;-78
2022/05/01 12:19:44;;;;;;;6.43;3.70;;;22.10;59.40;;;;;;5040240;28;20037;-78
2022/05/01 12:22:14;;;;;;;9.77;4.15;;;22.10;59.20;;;;;;5033492;28;20066;-78
2022/05/01 12:24:41;;;;;;;39.17;5.72;;;22.20;60.10;;;;;;5046039;28;20488;-78
2022/05/01 12:27:08;;;;;;;5.82;4.18;;;22.40;58.90;;;;;;5043991;28;20021;-78
2022/05/01 12:29:35;;;;;;;5.35;3.30;;;22.40;56.70;;;;;;5038917;28;20024;-78
2022/05/01 12:32:09;;;;;;;5.22;3.67;;;22.30;57.90;;;;;;5046677;28;20122;-79
2022/05/01 12:34:37;;;;;;;5.05;3.70;;;22.40;57.90;;;;;;5033889;28;20152;-79
2022/05/01 12:37:05;;;;;;;6.07;3.65;;;22.60;57.70;;;;;;5039085;28;20041;-78
2022/05/01 12:39:31;;;;;;;16.48;4.13;;;22.70;58.40;;;;;;5039494;28;20033;-79
2022/05/01 12:45:03;;;;;;;5.40;3.42;;;23.00;56.20;;;;;;5055427;28;20469;-78
2022/05/01 12:47:33;;;;;;;9.88;3.50;;;22.90;56.90;;;;;;5050635;28;20079;-77
2022/05/01 12:50:00;;;;;;;24.90;4.55;;;22.90;58.40;;;;;;5051573;28;20028;-78
2022/05/01 12:52:33;;;;;;;6.25;3.45;;;23.00;57.10;;;;;;5048156;28;20462;-79
2022/05/01 12:55:14;;;;;;;5.22;3.60;;;23.10;56.80;;;;;;5059541;28;20029;-78
2022/05/01 12:57:41;;;;;;;8.73;4.00;;;23.20;55.70;;;;;;5050858;28;20025;-78
2022/05/01 13:00:08;;;;;;;4.13;3.30;;;23.20;56.30;;;;;;5050975;28;20436;-79
2022/05/01 13:02:33;;;;;;;5.13;2.97;;;23.20;56.10;;;;;;5042782;28;20021;-78
2022/05/01 13:05:03;;;;;;;4.55;3.40;;;23.00;56.30;;;;;;5056092;28;20036;-79
2022/05/01 13:07:34;;;;;;;4.38;2.80;;;22.90;54.90;;;;;;5045822;28;20032;-77
2022/05/01 13:10:01;;;;;;;7.05;2.85;;;22.90;55.30;;;;;;5054405;28;20470;-77
2022/05/01 13:12:31;;;;;;;5.85;3.58;;;22.90;55.50;;;;;;5070539;28;20465;-79
2022/05/01 13:14:59;;;;;;;17.58;3.70;;;23.00;55.70;;;;;;5056807;28;20025;-79
2022/05/01 13:17:28;;;;;;;7.55;3.00;;;23.00;56.00;;;;;;5028837;28;20030;-79
2022/05/01 13:19:55;;;;;;;15.38;3.42;;;23.00;55.40;;;;;;5055337;28;20529;-77
2022/05/01 13:22:21;;;;;;;11.00;3.22;;;23.00;55.40;;;;;;5057691;28;20039;-77
2022/05/01 13:24:54;;;;;;;7.10;2.72;;;23.10;55.80;;;;;;5057400;28;20025;-78
2022/05/01 13:27:21;;;;;;;7.30;3.40;;;23.30;55.70;;;;;;5050978;28;20043;-77